createdAt,value
2022-09-01T00:01:51.542Z,19.65
2022-09-01T00:04:21.859Z,19.65
2022-09-01T00:06:50.313Z,19.63
2022-09-01T00:09:20.452Z,19.61
2022-09-01T00:11:50.928Z,19.53
2022-09-01T00:14:23.762Z,19.44
2022-09-01T00:16:59.989Z,19.44
2022-09-01T00:19:29.693Z,19.39
2022-09-01T00:21:58.229Z,19.40
2022-09-01T00:24:26.807Z,19.39
2022-09-01T00:26:55.601Z,19.39
2022-09-01T00:29:25.918Z,19.40
2022-09-01T00:31:53.832Z,19.36
2022-09-01T00:34:23.594Z,19.31
2022-09-01T00:36:51.564Z,19.26
2022-09-01T00:39:19.423Z,19.30
2022-09-01T00:41:48.039Z,19.23
2022-09-01T00:44:19.032Z,19.24
2022-09-01T00:46:55.262Z,19.22
2022-09-01T00:49:31.402Z,19.20
2022-09-01T00:52:03.362Z,19.14
2022-09-01T00:54:35.211Z,19.09
2022-09-01T00:57:04.795Z,19.07
2022-09-01T00:59:33.523Z,19.09
2022-09-01T01:02:01.319Z,19.00
2022-09-01T01:04:32.182Z,18.99
2022-09-01T01:07:01.831Z,18.98
2022-09-01T01:09:34.182Z,18.93
2022-09-01T01:12:05.116Z,18.92
2022-09-01T01:14:37.031Z,18.91
2022-09-01T01:17:05.465Z,18.89
2022-09-01T01:20:00.790Z,18.87
2022-09-01T01:22:54.386Z,18.86
2022-09-01T01:25:24.339Z,18.79
2022-09-01T01:27:52.510Z,18.76
2022-09-01T01:30:23.735Z,18.70
2022-09-01T01:32:52.745Z,18.61
2022-09-01T01:35:21.859Z,18.61
2022-09-01T01:37:50.522Z,18.58
2022-09-01T01:40:22.254Z,18.57
2022-09-01T01:42:53.703Z,18.52
2022-09-01T01:45:24.343Z,18.45
2022-09-01T01:47:54.270Z,18.45
2022-09-01T01:50:22.889Z,18.48
2022-09-01T01:52:51.028Z,18.45
2022-09-01T01:55:29.188Z,18.48
2022-09-01T01:57:59.618Z,18.39
2022-09-01T02:00:32.327Z,18.38
2022-09-01T02:03:00.459Z,18.41
2022-09-01T02:05:32.818Z,18.44
2022-09-01T02:08:04.064Z,18.45
2022-09-01T02:10:35.017Z,18.46
2022-09-01T02:13:07.637Z,18.41
2022-09-01T02:15:44.236Z,18.40
2022-09-01T02:18:14.401Z,18.44
2022-09-01T02:20:42.480Z,18.40
2022-09-01T02:23:11.760Z,18.39
2022-09-01T02:26:05.124Z,18.35
2022-09-01T02:28:36.906Z,18.34
2022-09-01T02:31:08.899Z,18.36
2022-09-01T02:33:37.987Z,18.37
2022-09-01T02:36:09.912Z,18.38
2022-09-01T02:38:41.866Z,18.36
2022-09-01T02:41:14.480Z,18.31
2022-09-01T02:43:44.512Z,18.33
2022-09-01T02:46:12.564Z,18.31
2022-09-01T02:48:43.534Z,18.30
2022-09-01T02:51:14.406Z,18.26
2022-09-01T02:56:14.363Z,18.21
2022-09-01T02:58:46.912Z,18.18
2022-09-01T03:01:17.178Z,18.15
2022-09-01T03:03:45.017Z,18.10
2022-09-01T03:06:12.846Z,18.07
2022-09-01T03:08:40.937Z,18.05
2022-09-01T03:11:13.018Z,18.01
2022-09-01T03:13:43.597Z,17.97
2022-09-01T03:16:11.585Z,17.96
2022-09-01T03:18:40.020Z,17.95
2022-09-01T03:21:08.387Z,17.88
2022-09-01T03:23:36.856Z,17.88
2022-09-01T03:26:05.297Z,17.86
2022-09-01T03:28:33.014Z,17.86
2022-09-01T03:31:02.089Z,17.89
2022-09-01T03:33:29.971Z,17.86
2022-09-01T03:35:58.254Z,17.81
2022-09-01T03:38:26.541Z,17.81
2022-09-01T03:40:58.998Z,17.73
2022-09-01T03:43:27.808Z,17.74
2022-09-01T03:46:04.965Z,17.75
2022-09-01T03:48:33.587Z,17.75
2022-09-01T03:51:02.744Z,17.76
2022-09-01T03:53:32.647Z,17.79
2022-09-01T03:56:01.562Z,17.72
2022-09-01T03:58:29.315Z,17.71
2022-09-01T04:01:01.964Z,17.69
2022-09-01T04:03:34.549Z,17.67
2022-09-01T04:06:05.400Z,17.63
2022-09-01T04:08:33.249Z,17.58
2022-09-01T04:11:02.939Z,17.54
2022-09-01T04:13:34.911Z,17.51
2022-09-01T04:16:03.261Z,17.51
2022-09-01T04:18:31.423Z,17.49
2022-09-01T04:21:00.742Z,17.49
2022-09-01T04:23:30.956Z,17.49
2022-09-01T04:26:08.827Z,17.42
2022-09-01T04:28:38.927Z,17.41
2022-09-01T04:31:09.235Z,17.37
2022-09-01T04:33:40.026Z,17.31
2022-09-01T04:36:14.750Z,17.25
2022-09-01T04:38:42.475Z,17.26
2022-09-01T04:41:10.233Z,17.28
2022-09-01T04:43:37.936Z,17.30
2022-09-01T04:46:06.054Z,17.31
2022-09-01T04:48:35.937Z,17.28
2022-09-01T04:51:10.473Z,17.23
2022-09-01T04:53:39.061Z,17.22
2022-09-01T04:56:09.712Z,17.20
2022-09-01T04:58:38.787Z,17.19
2022-09-01T05:01:15.299Z,17.16
2022-09-01T05:03:43.139Z,17.16
2022-09-01T05:06:16.087Z,17.17
2022-09-01T05:08:45.703Z,17.15
2022-09-01T05:11:17.833Z,17.16
2022-09-01T05:13:46.507Z,17.13
2022-09-01T05:16:17.820Z,17.07
2022-09-01T05:18:50.006Z,17.09
2022-09-01T05:21:24.583Z,17.10
2022-09-01T05:23:53.966Z,17.09
2022-09-01T05:26:26.183Z,17.07
2022-09-01T05:28:55.783Z,17.07
2022-09-01T05:31:23.903Z,17.11
2022-09-01T05:33:52.384Z,17.12
2022-09-01T05:36:23.515Z,17.14
2022-09-01T05:38:52.298Z,17.14
2022-09-01T05:41:23.885Z,17.14
2022-09-01T05:43:57.799Z,17.12
2022-09-01T05:46:28.324Z,17.18
2022-09-01T05:48:57.813Z,17.22
2022-09-01T05:51:46.270Z,17.23
2022-09-01T05:54:17.488Z,17.27
2022-09-01T05:56:46.057Z,17.33
2022-09-01T05:59:23.401Z,17.42
2022-09-01T06:01:53.201Z,17.55
2022-09-01T06:04:22.250Z,17.67
2022-09-01T06:07:08.813Z,17.74
2022-09-01T06:09:39.402Z,17.91
2022-09-01T06:12:09.191Z,17.96
2022-09-01T06:14:36.968Z,17.95
2022-09-01T06:17:04.860Z,17.92
2022-09-01T06:19:36.900Z,17.87
2022-09-01T06:22:06.277Z,17.84
2022-09-01T06:24:34.606Z,17.87
2022-09-01T06:27:02.816Z,17.93
2022-09-01T06:29:31.277Z,17.96
2022-09-01T06:32:02.299Z,18.04
2022-09-01T06:34:30.238Z,18.11
2022-09-01T06:36:57.926Z,18.14
2022-09-01T06:39:27.029Z,18.14
2022-09-01T06:41:55.022Z,18.20
2022-09-01T06:44:23.428Z,18.20
2022-09-01T06:46:51.729Z,18.29
2022-09-01T06:49:21.435Z,18.38
2022-09-01T06:51:52.725Z,18.46
2022-09-01T06:54:21.650Z,18.56
2022-09-01T06:59:38.537Z,18.64
2022-09-01T07:02:06.598Z,18.74
2022-09-01T07:04:35.960Z,18.85
2022-09-01T07:10:17.823Z,19.01
2022-09-01T07:13:05.446Z,19.12
2022-09-01T07:16:31.926Z,19.22
2022-09-01T07:18:25.179Z,19.31
2022-09-01T07:21:36.152Z,19.42
2022-09-01T07:24:07.598Z,19.46
2022-09-01T07:26:32.342Z,19.57
2022-09-01T07:29:04.347Z,19.64
2022-09-01T07:32:43.676Z,19.77
2022-09-01T07:34:40.407Z,19.82
2022-09-01T07:38:47.838Z,19.87
2022-09-01T07:42:57.191Z,18.60
2022-09-01T07:45:34.769Z,20.09
2022-09-01T07:48:06.706Z,20.17
2022-09-01T07:51:33.978Z,20.26
2022-09-01T07:53:31.478Z,20.34
2022-09-01T07:56:01.281Z,20.39
2022-09-01T07:58:31.409Z,20.44
2022-09-01T08:01:02.807Z,20.51
2022-09-01T08:03:31.680Z,20.61
2022-09-01T08:06:06.433Z,20.61
2022-09-01T08:08:35.833Z,20.65
2022-09-01T08:11:04.911Z,20.70
2022-09-01T08:13:38.942Z,20.79
2022-09-01T08:16:18.534Z,20.87
2022-09-01T08:18:49.189Z,20.96
2022-09-01T08:21:18.519Z,20.99
2022-09-01T08:23:47.830Z,21.02
2022-09-01T08:26:17.251Z,21.12
2022-09-01T08:28:47.233Z,21.19
2022-09-01T08:31:26.129Z,21.27
2022-09-01T08:33:58.302Z,21.41
2022-09-01T08:36:26.283Z,21.50
2022-09-01T08:38:54.439Z,21.63
2022-09-01T08:41:35.193Z,21.73
2022-09-01T08:44:12.330Z,21.75
2022-09-01T08:46:43.426Z,21.78
2022-09-01T08:49:25.204Z,21.83
2022-09-01T08:51:59.023Z,21.86
2022-09-01T08:54:37.396Z,21.94
2022-09-01T08:57:10.959Z,21.95
2022-09-01T08:59:39.181Z,22.00
2022-09-01T09:02:26.331Z,22.07
2022-09-01T09:05:15.625Z,22.15
2022-09-01T09:08:18.079Z,22.18
2022-09-01T09:10:56.346Z,22.21
2022-09-01T09:13:32.153Z,22.26
2022-09-01T09:16:08.797Z,22.36
2022-09-01T09:18:59.308Z,22.45
2022-09-01T09:21:31.052Z,22.57
2022-09-01T09:24:04.817Z,22.61
2022-09-01T09:26:48.067Z,22.60
2022-09-01T09:29:15.942Z,22.58
2022-09-01T09:31:49.986Z,22.66
2022-09-01T09:34:32.588Z,22.82
2022-09-01T09:37:03.381Z,22.88
2022-09-01T09:42:09.441Z,23.00
2022-09-01T09:44:44.217Z,23.03
2022-09-01T09:47:40.253Z,23.07
2022-09-01T09:50:14.823Z,23.09
2022-09-01T09:52:46.859Z,23.15
2022-09-01T09:55:26.852Z,23.22
2022-09-01T09:57:59.092Z,23.29
2022-09-01T10:00:27.624Z,23.30
2022-09-01T10:02:58.583Z,23.32
2022-09-01T10:05:35.352Z,23.39
2022-09-01T10:08:04.119Z,23.44
2022-09-01T10:10:39.698Z,23.50
2022-09-01T10:13:13.822Z,23.53
2022-09-01T10:15:44.929Z,23.55
2022-09-01T10:18:29.028Z,23.60
2022-09-01T10:21:05.615Z,23.58
2022-09-01T10:23:37.015Z,23.52
2022-09-01T10:26:10.670Z,23.50
2022-09-01T10:28:50.828Z,23.56
2022-09-01T10:31:23.017Z,23.67
2022-09-01T10:33:51.331Z,23.76
2022-09-01T10:36:24.477Z,23.82
2022-09-01T10:38:58.764Z,23.90
2022-09-01T10:42:07.627Z,23.92
2022-09-01T10:44:38.821Z,23.90
2022-09-01T10:47:14.829Z,23.92
2022-09-01T10:50:01.228Z,23.98
2022-09-01T10:52:56.964Z,24.08
2022-09-01T10:55:29.345Z,24.10
2022-09-01T10:59:30.307Z,24.16
2022-09-01T11:01:13.419Z,24.24
2022-09-01T11:04:01.462Z,24.34
2022-09-01T11:07:16.844Z,24.34
2022-09-01T11:09:49.094Z,24.38
2022-09-01T11:12:40.112Z,24.39
2022-09-01T11:15:35.566Z,24.47
2022-09-01T11:18:08.992Z,24.59
2022-09-01T11:20:39.514Z,24.68
2022-09-01T11:23:12.624Z,24.75
2022-09-01T11:25:44.102Z,24.76
2022-09-01T11:28:37.457Z,24.69
2022-09-01T11:31:30.144Z,24.68
2022-09-01T11:34:06.709Z,24.68
2022-09-01T11:36:36.257Z,24.73
2022-09-01T11:39:08.410Z,24.83
2022-09-01T11:41:55.745Z,24.84
2022-09-01T11:44:28.959Z,24.93
2022-09-01T11:47:03.140Z,24.98
2022-09-01T11:49:33.267Z,25.10
2022-09-01T11:52:02.560Z,25.21
2022-09-01T11:54:38.516Z,25.13
2022-09-01T11:57:19.790Z,24.98
2022-09-01T11:59:47.909Z,24.95
2022-09-01T12:02:23.138Z,25.03
2022-09-01T12:04:51.978Z,25.13
2022-09-01T12:07:31.255Z,25.20
2022-09-01T12:09:59.238Z,25.34
2022-09-01T12:12:31.884Z,25.49
2022-09-01T12:15:06.300Z,25.57
2022-09-01T12:17:37.119Z,25.70
2022-09-01T12:20:29.502Z,25.79
2022-09-01T12:22:58.590Z,25.88
2022-09-01T12:25:29.033Z,25.96
2022-09-01T12:27:57.640Z,26.04
2022-09-01T12:30:27.079Z,26.11
2022-09-01T12:35:46.610Z,26.20
2022-09-01T12:38:30.922Z,26.19
2022-09-01T12:40:59.988Z,26.24
2022-09-01T12:43:38.776Z,26.33
2022-09-01T12:46:10.750Z,26.40
2022-09-01T12:48:42.877Z,26.17
2022-09-01T12:51:20.128Z,25.95
2022-09-01T12:53:53.932Z,25.97
2022-09-01T12:56:29.789Z,26.10
2022-09-01T12:59:11.914Z,26.23
2022-09-01T13:01:43.996Z,26.25
2022-09-01T13:04:25.448Z,26.21
2022-09-01T13:06:54.195Z,26.08
2022-09-01T13:09:21.977Z,25.97
2022-09-01T13:12:06.532Z,25.90
2022-09-01T13:14:34.989Z,26.03
2022-09-01T13:17:02.792Z,26.11
2022-09-01T13:19:31.892Z,26.21
2022-09-01T13:21:59.713Z,26.20
2022-09-01T13:24:30.402Z,26.25
2022-09-01T13:29:48.530Z,26.38
2022-09-01T13:32:19.131Z,26.25
2022-09-01T13:34:50.695Z,26.29
2022-09-01T13:37:19.637Z,26.43
2022-09-01T13:39:48.609Z,26.56
2022-09-01T13:42:16.801Z,26.74
2022-09-01T13:44:46.310Z,26.88
2022-09-01T13:47:31.161Z,26.95
2022-09-01T13:50:11.103Z,26.83
2022-09-01T13:52:40.500Z,26.74
2022-09-01T13:55:11.045Z,26.77
2022-09-01T13:57:38.944Z,26.87
2022-09-01T14:00:10.755Z,26.80
2022-09-01T14:02:39.635Z,26.60
2022-09-01T14:05:10.316Z,26.47
2022-09-01T14:07:38.319Z,26.38
2022-09-01T14:10:07.597Z,26.22
2022-09-01T14:12:36.058Z,26.14
2022-09-01T14:15:15.917Z,26.12
2022-09-01T14:17:46.316Z,26.21
2022-09-01T14:20:18.533Z,26.29
2022-09-01T14:22:46.842Z,26.34
2022-09-01T14:25:15.496Z,26.36
2022-09-01T14:27:43.909Z,26.29
2022-09-01T14:30:15.704Z,26.28
2022-09-01T14:32:43.675Z,26.24
2022-09-01T14:35:11.869Z,26.26
2022-09-01T14:37:41.471Z,26.33
2022-09-01T14:40:14.709Z,26.27
2022-09-01T14:42:46.492Z,26.16
2022-09-01T14:45:16.272Z,26.05
2022-09-01T14:47:44.434Z,26.03
2022-09-01T14:50:14.187Z,26.01
2022-09-01T14:52:45.229Z,25.99
2022-09-01T14:55:12.958Z,26.00
2022-09-01T14:57:40.777Z,26.04
2022-09-01T15:00:12.014Z,26.13
2022-09-01T15:02:40.679Z,26.18
2022-09-01T15:05:09.888Z,26.23
2022-09-01T15:07:38.629Z,26.29
2022-09-01T15:10:10.389Z,26.24
2022-09-01T15:12:43.799Z,26.20
2022-09-01T15:15:11.810Z,26.16
2022-09-01T15:17:42.242Z,26.10
2022-09-01T15:20:30.294Z,26.11
2022-09-01T15:22:58.083Z,26.11
2022-09-01T15:25:27.466Z,26.14
2022-09-01T15:27:55.290Z,26.13
2022-09-01T15:30:23.139Z,26.07
2022-09-01T15:32:53.096Z,26.01
2022-09-01T15:35:22.193Z,25.99
2022-09-01T15:37:52.124Z,25.87
2022-09-01T15:40:21.279Z,25.91
2022-09-01T15:42:50.755Z,25.89
2022-09-01T15:45:20.979Z,25.87
2022-09-01T15:47:49.276Z,25.88
2022-09-01T15:50:22.055Z,25.91
2022-09-01T15:52:52.775Z,25.90
2022-09-01T15:55:23.341Z,25.90
2022-09-01T15:57:54.221Z,25.90
2022-09-01T16:00:23.722Z,25.90
2022-09-01T16:02:54.317Z,25.90
2022-09-01T16:05:22.411Z,25.90
2022-09-01T16:07:51.753Z,25.87
2022-09-01T16:10:19.614Z,25.83
2022-09-01T16:12:49.842Z,25.81
2022-09-01T16:15:21.852Z,25.78
2022-09-01T16:18:12.160Z,25.74
2022-09-01T16:20:48.496Z,25.69
2022-09-01T16:23:19.146Z,25.66
2022-09-01T16:25:47.884Z,25.61
2022-09-01T16:28:25.052Z,25.58
2022-09-01T16:31:00.660Z,25.50
2022-09-01T16:33:28.587Z,25.50
2022-09-01T16:36:08.719Z,25.49
2022-09-01T16:38:45.618Z,25.46
2022-09-01T16:41:22.439Z,25.43
2022-09-01T16:44:01.030Z,25.38
2022-09-01T16:46:35.486Z,25.31
2022-09-01T16:49:20.038Z,25.26
2022-09-01T16:51:56.534Z,25.19
2022-09-01T16:54:31.995Z,25.13
2022-09-01T16:57:08.902Z,25.11
2022-09-01T16:59:45.580Z,25.09
2022-09-01T17:02:31.073Z,25.09
2022-09-01T17:05:04.816Z,25.08
2022-09-01T17:07:44.610Z,25.08
2022-09-01T17:10:23.687Z,25.07
2022-09-01T17:12:56.177Z,25.05
2022-09-01T17:15:36.370Z,25.00
2022-09-01T17:18:21.694Z,24.96
2022-09-01T17:20:57.902Z,24.91
2022-09-01T17:23:29.966Z,24.89
2022-09-01T17:26:03.078Z,24.85
2022-09-01T17:28:36.015Z,24.77
2022-09-01T17:31:14.437Z,24.73
2022-09-01T17:33:58.458Z,24.72
2022-09-01T17:36:44.645Z,24.66
2022-09-01T17:39:25.046Z,24.55
2022-09-01T17:41:57.947Z,24.52
2022-09-01T17:44:37.438Z,24.48
2022-09-01T17:47:12.785Z,24.40
2022-09-01T17:49:52.428Z,24.36
2022-09-01T17:52:30.093Z,24.30
2022-09-01T17:55:04.043Z,24.26
2022-09-01T17:57:38.654Z,24.18
2022-09-01T18:00:10.790Z,24.11
2022-09-01T18:02:48.171Z,24.04
2022-09-01T18:05:20.354Z,24.01
2022-09-01T18:08:09.249Z,23.94
2022-09-01T18:10:41.682Z,23.89
2022-09-01T18:13:30.851Z,23.83
2022-09-01T18:16:11.329Z,23.78
2022-09-01T18:18:41.708Z,23.73
2022-09-01T18:21:15.208Z,23.66
2022-09-01T18:23:45.636Z,23.60
2022-09-01T18:26:27.193Z,23.54
2022-09-01T18:28:55.670Z,23.48
2022-09-01T18:31:58.767Z,23.42
2022-09-01T18:34:34.687Z,23.34
2022-09-01T18:37:12.020Z,23.28
2022-09-01T18:40:02.321Z,23.16
2022-09-01T18:42:38.411Z,23.14
2022-09-01T18:45:20.264Z,23.11
2022-09-01T18:48:00.085Z,23.07
2022-09-01T18:50:35.567Z,23.02
2022-09-01T18:53:20.813Z,22.98
2022-09-01T18:55:56.283Z,22.92
2022-09-01T18:58:33.571Z,22.84
2022-09-01T19:01:06.219Z,22.78
2022-09-01T19:03:39.850Z,22.76
2022-09-01T19:06:24.885Z,22.71
2022-09-01T19:09:08.218Z,22.61
2022-09-01T19:11:50.068Z,22.58
2022-09-01T19:14:28.032Z,22.54
2022-09-01T19:17:10.645Z,22.49
2022-09-01T19:19:44.229Z,22.47
2022-09-01T19:22:18.648Z,22.37
2022-09-01T19:25:14.877Z,22.33
2022-09-01T19:27:43.937Z,22.30
2022-09-01T19:30:12.025Z,22.28
2022-09-01T19:32:40.219Z,22.22
2022-09-01T19:35:12.697Z,22.23
2022-09-01T19:37:44.044Z,22.19
2022-09-01T19:40:15.814Z,22.08
2022-09-01T19:42:58.744Z,22.08
2022-09-01T19:45:30.772Z,22.02
2022-09-01T19:48:04.596Z,21.98
2022-09-01T19:50:38.038Z,21.92
2022-09-01T19:53:12.542Z,21.84
2022-09-01T19:55:47.564Z,21.84
2022-09-01T19:58:20.136Z,21.82
2022-09-01T20:00:52.766Z,21.76
2022-09-01T20:03:26.836Z,21.75
2022-09-01T20:05:58.227Z,21.74
2022-09-01T20:08:30.568Z,21.71
2022-09-01T20:11:03.314Z,21.67
2022-09-01T20:13:50.979Z,21.65
2022-09-01T20:16:28.012Z,21.58
2022-09-01T20:19:02.171Z,21.56
2022-09-01T20:21:30.148Z,21.53
2022-09-01T20:24:04.055Z,21.52
2022-09-01T20:26:40.406Z,21.50
2022-09-01T20:29:15.386Z,21.41
2022-09-01T20:31:49.023Z,21.37
2022-09-01T20:34:26.314Z,21.37
2022-09-01T20:37:00.315Z,21.33
2022-09-01T20:39:53.829Z,21.32
2022-09-01T20:42:32.092Z,21.34
2022-09-01T20:45:04.375Z,21.33
2022-09-01T20:47:32.480Z,21.26
2022-09-01T20:50:02.411Z,21.25
2022-09-01T20:52:38.213Z,21.26
2022-09-01T20:55:14.206Z,21.22
2022-09-01T20:57:57.270Z,21.19
2022-09-01T21:00:28.079Z,21.19
2022-09-01T21:03:03.965Z,21.14
2022-09-01T21:05:41.848Z,21.08
2022-09-01T21:08:29.551Z,21.06
2022-09-01T21:11:14.721Z,21.02
2022-09-01T21:13:53.883Z,21.02
2022-09-01T21:16:32.541Z,20.96
2022-09-01T21:19:07.452Z,20.93
2022-09-01T21:21:39.881Z,20.93
2022-09-01T21:24:08.813Z,20.90
2022-09-01T21:26:38.213Z,20.89
2022-09-01T21:29:20.531Z,20.87
2022-09-01T21:31:51.489Z,20.80
2022-09-01T21:34:19.365Z,20.80
2022-09-01T21:36:47.499Z,20.78
2022-09-01T21:39:15.450Z,20.77
2022-09-01T21:41:43.324Z,20.71
2022-09-01T21:44:13.502Z,20.68
2022-09-01T21:46:41.802Z,20.67
2022-09-01T21:49:10.550Z,20.62
2022-09-01T21:51:38.536Z,20.58
2022-09-01T21:54:06.590Z,20.55
2022-09-01T21:56:34.566Z,20.54
2022-09-01T21:59:02.456Z,20.47
2022-09-01T22:01:32.104Z,20.43
2022-09-01T22:04:00.420Z,20.43
2022-09-01T22:06:28.614Z,20.42
2022-09-01T22:08:56.431Z,20.40
2022-09-01T22:11:24.322Z,20.35
2022-09-01T22:13:52.524Z,20.33
2022-09-01T22:16:22.353Z,20.30
2022-09-01T22:18:51.689Z,20.25
2022-09-01T22:21:20.655Z,20.25
2022-09-01T22:23:48.598Z,20.20
2022-09-01T22:26:22.282Z,20.16
2022-09-01T22:28:50.296Z,20.13
2022-09-01T22:31:21.046Z,20.08
2022-09-01T22:33:49.610Z,20.04
2022-09-01T22:36:24.091Z,20.01
2022-09-01T22:38:52.284Z,20.01
2022-09-01T22:41:21.876Z,19.97
2022-09-01T22:43:50.456Z,19.96
2022-09-01T22:48:49.194Z,19.86
2022-09-01T22:51:17.787Z,19.86
2022-09-01T22:53:48.015Z,19.84
2022-09-01T22:56:20.275Z,19.82
2022-09-01T22:58:49.120Z,19.82
2022-09-01T23:01:20.858Z,19.76
2022-09-01T23:03:49.234Z,19.71
2022-09-01T23:06:27.564Z,19.65
2022-09-01T23:08:57.469Z,19.64
2022-09-01T23:11:25.625Z,19.60
2022-09-01T23:13:54.358Z,19.60
2022-09-01T23:16:24.060Z,19.57
2022-09-01T23:18:53.041Z,19.56
2022-09-01T23:21:24.639Z,19.54
2022-09-01T23:23:58.423Z,19.50
2022-09-01T23:26:28.151Z,19.47
2022-09-01T23:28:56.929Z,19.46
2022-09-01T23:31:27.626Z,19.41
2022-09-01T23:33:55.683Z,19.39
2022-09-01T23:36:25.898Z,19.36
2022-09-01T23:38:54.408Z,19.39
2022-09-01T23:41:25.401Z,19.36
2022-09-01T23:43:55.315Z,19.31
2022-09-01T23:46:25.048Z,19.30
2022-09-01T23:48:53.456Z,19.27
2022-09-01T23:51:22.481Z,19.23
2022-09-01T23:53:51.757Z,19.17
2022-09-01T23:56:21.544Z,19.15
2022-09-01T23:58:49.896Z,19.14
